sensor_id;sensor_type;location;lat;lon;timestamp;temperature;humidity
1992;DHT22;997;48.448;8.924;2023-04-24T08:28:24;10.70;99.90
1992;DHT22;997;48.448;8.924;2023-04-24T08:30:49;10.90;99.90
1992;DHT22;997;48.448;8.924;2023-04-24T08:33:21;10.80;99.90
1992;DHT22;997;48.448;8.924;2023-04-24T08:35:47;10.80;99.90
1992;DHT22;997;48.448;8.924;2023-04-24T08:38:13;10.60;99.90
1992;DHT22;997;48.448;8.924;2023-04-24T08:40:38;10.50;99.90
1992;DHT22;997;48.448;8.924;2023-04-24T08:43:05;10.50;99.90
1992;DHT22;997;48.448;8.924;2023-04-24T08:45:32;10.50;99.90
1992;DHT22;997;48.448;8.924;2023-04-24T08:47:58;10.50;99.90
1992;DHT22;997;48.448;8.924;2023-04-24T08:50:25;10.70;99.90
1992;DHT22;997;48.448;8.924;2023-04-24T08:52:51;10.80;99.90
1992;DHT22;997;48.448;8.924;2023-04-24T08:55:19;11.10;99.90
1992;DHT22;997;48.448;8.924;2023-04-24T08:57:49;11.30;99.90
1992;DHT22;997;48.448;8.924;2023-04-24T09:00:16;11.20;99.90
1992;DHT22;997;48.448;8.924;2023-04-24T09:02:42;11.10;99.90
1992;DHT22;997;48.448;8.924;2023-04-24T09:05:11;10.80;99.90
1992;DHT22;997;48.448;8.924;2023-04-24T09:07:39;10.60;99.90
1992;DHT22;997;48.448;8.924;2023-04-24T09:10:07;10.60;99.90
1992;DHT22;997;48.448;8.924;2023-04-24T09:12:34;10.50;99.90
1992;DHT22;997;48.448;8.924;2023-04-24T09:15:07;10.50;99.90
1992;DHT22;997;48.448;8.924;2023-04-24T09:17:33;10.50;99.90
1992;DHT22;997;48.448;8.924;2023-04-24T09:19:59;10.40;99.90
1992;DHT22;997;48.448;8.924;2023-04-24T09:22:25;10.30;99.90
1992;DHT22;997;48.448;8.924;2023-04-24T09:25:05;10.30;99.90
1992;DHT22;997;48.448;8.924;2023-04-24T09:27:33;10.30;99.90
1992;DHT22;997;48.448;8.924;2023-04-24T09:29:59;10.30;99.90
1992;DHT22;997;48.448;8.924;2023-04-24T09:32:26;10.30;99.90
1992;DHT22;997;48.448;8.924;2023-04-24T09:35:12;10.40;99.90
1992;DHT22;997;48.448;8.924;2023-04-24T09:37:43;10.70;99.90
1992;DHT22;997;48.448;8.924;2023-04-24T09:40:16;10.90;99.90
1992;DHT22;997;48.448;8.924;2023-04-24T09:42:56;11.20;99.90
1992;DHT22;997;48.448;8.924;2023-04-24T09:45:36;11.40;99.90
1992;DHT22;997;48.448;8.924;2023-04-24T09:48:03;11.40;99.90
1992;DHT22;997;48.448;8.924;2023-04-24T09:50:30;11.40;99.90
1992;DHT22;997;48.448;8.924;2023-04-24T09:53:02;11.60;99.90
1992;DHT22;997;48.448;8.924;2023-04-24T09:55:29;11.60;99.90
1992;DHT22;997;48.448;8.924;2023-04-24T09:57:57;11.60;99.90
1992;DHT22;997;48.448;8.924;2023-04-24T10:00:28;11.40;99.90
1992;DHT22;997;48.448;8.924;2023-04-24T10:02:55;11.20;99.90
1992;DHT22;997;48.448;8.924;2023-04-24T10:05:30;11.30;99.90
1992;DHT22;997;48.448;8.924;2023-04-24T10:08:07;11.60;99.90
1992;DHT22;997;48.448;8.924;2023-04-24T10:10:34;11.60;99.90
1992;DHT22;997;48.448;8.924;2023-04-24T10:13:00;11.60;99.90
1992;DHT22;997;48.448;8.924;2023-04-24T10:15:27;11.60;99.90
1992;DHT22;997;48.448;8.924;2023-04-24T10:17:53;12.00;99.90
1992;DHT22;997;48.448;8.924;2023-04-24T10:20:23;12.10;99.90
1992;DHT22;997;48.448;8.924;2023-04-24T10:22:51;12.30;99.90
1992;DHT22;997;48.448;8.924;2023-04-24T10:25:21;12.20;99.90
1992;DHT22;997;48.448;8.924;2023-04-24T10:27:49;12.10;99.90
1992;DHT22;997;48.448;8.924;2023-04-24T10:30:16;12.20;99.90
1992;DHT22;997;48.448;8.924;2023-04-24T10:32:41;12.30;99.90
1992;DHT22;997;48.448;8.924;2023-04-24T10:35:08;12.40;99.90
1992;DHT22;997;48.448;8.924;2023-04-24T10:37:37;12.50;99.90
1992;DHT22;997;48.448;8.924;2023-04-24T10:40:04;12.30;99.90
1992;DHT22;997;48.448;8.924;2023-04-24T10:42:30;12.00;99.90
1992;DHT22;997;48.448;8.924;2023-04-24T10:44:56;11.80;99.90
1992;DHT22;997;48.448;8.924;2023-04-24T10:47:23;11.50;99.90
1992;DHT22;997;48.448;8.924;2023-04-24T10:49:51;11.50;99.90
1992;DHT22;997;48.448;8.924;2023-04-24T10:52:17;11.40;99.90
1992;DHT22;997;48.448;8.924;2023-04-24T10:54:47;11.40;99.90
1992;DHT22;997;48.448;8.924;2023-04-24T10:59:45;11.30;99.90
1992;DHT22;997;48.448;8.924;2023-04-24T11:02:14;11.20;99.90
1992;DHT22;997;48.448;8.924;2023-04-24T11:04:43;11.20;99.90
1992;DHT22;997;48.448;8.924;2023-04-24T11:07:09;11.30;99.90
1992;DHT22;997;48.448;8.924;2023-04-24T11:09:35;11.40;99.90
1992;DHT22;997;48.448;8.924;2023-04-24T11:12:09;11.50;99.90
1992;DHT22;997;48.448;8.924;2023-04-24T11:20:11;11.70;99.90
1992;DHT22;997;48.448;8.924;2023-04-24T11:22:40;11.80;99.90
1992;DHT22;997;48.448;8.924;2023-04-24T11:25:06;11.90;99.90
1992;DHT22;997;48.448;8.924;2023-04-24T11:27:39;12.00;99.90
1992;DHT22;997;48.448;8.924;2023-04-24T11:30:06;11.70;99.90
1992;DHT22;997;48.448;8.924;2023-04-24T11:32:40;11.60;99.90
1992;DHT22;997;48.448;8.924;2023-04-24T11:37:40;11.40;99.90
1992;DHT22;997;48.448;8.924;2023-04-24T11:40:08;11.40;99.90
1992;DHT22;997;48.448;8.924;2023-04-24T11:42:42;11.20;99.90
1992;DHT22;997;48.448;8.924;2023-04-24T11:45:13;11.10;99.90
1992;DHT22;997;48.448;8.924;2023-04-24T11:47:39;11.00;99.90
1992;DHT22;997;48.448;8.924;2023-04-24T11:50:07;10.90;99.90
1992;DHT22;997;48.448;8.924;2023-04-24T11:52:37;10.80;99.90
1992;DHT22;997;48.448;8.924;2023-04-24T11:55:03;10.70;99.90
1992;DHT22;997;48.448;8.924;2023-04-24T11:57:30;10.60;99.90
1992;DHT22;997;48.448;8.924;2023-04-24T12:00:03;10.50;99.90
1992;DHT22;997;48.448;8.924;2023-04-24T12:02:30;10.50;99.90
1992;DHT22;997;48.448;8.924;2023-04-24T12:04:56;10.60;99.90
1992;DHT22;997;48.448;8.924;2023-04-24T12:07:23;10.80;99.90
1992;DHT22;997;48.448;8.924;2023-04-24T12:09:56;10.90;99.90
1992;DHT22;997;48.448;8.924;2023-04-24T12:12:25;10.90;99.90
1992;DHT22;997;48.448;8.924;2023-04-24T12:17:33;10.70;99.90
1992;DHT22;997;48.448;8.924;2023-04-24T12:20:07;10.60;99.90
1992;DHT22;997;48.448;8.924;2023-04-24T12:25:16;10.60;99.90
1992;DHT22;997;48.448;8.924;2023-04-24T12:27:51;10.60;99.90
1992;DHT22;997;48.448;8.924;2023-04-24T12:30:18;10.60;99.90
1992;DHT22;997;48.448;8.924;2023-04-24T12:32:46;10.80;99.90
1992;DHT22;997;48.448;8.924;2023-04-24T12:35:12;10.60;99.90
1992;DHT22;997;48.448;8.924;2023-04-24T12:37:41;10.40;99.90
1992;DHT22;997;48.448;8.924;2023-04-24T12:40:10;10.40;99.90
1992;DHT22;997;48.448;8.924;2023-04-24T12:42:42;10.40;99.90
1992;DHT22;997;48.448;8.924;2023-04-24T12:45:08;10.40;99.90
1992;DHT22;997;48.448;8.924;2023-04-24T12:47:34;10.50;99.90
1992;DHT22;997;48.448;8.924;2023-04-24T12:50:01;10.70;99.90
1992;DHT22;997;48.448;8.924;2023-04-24T12:52:29;10.90;99.90
1992;DHT22;997;48.448;8.924;2023-04-24T12:54:58;11.00;99.90
1992;DHT22;997;48.448;8.924;2023-04-24T12:57:24;11.30;99.90
1992;DHT22;997;48.448;8.924;2023-04-24T12:59:52;11.70;99.90
1992;DHT22;997;48.448;8.924;2023-04-24T13:02:17;12.20;99.90
1992;DHT22;997;48.448;8.924;2023-04-24T13:04:47;12.60;99.90
1992;DHT22;997;48.448;8.924;2023-04-24T13:07:13;12.80;99.90
1992;DHT22;997;48.448;8.924;2023-04-24T13:09:40;13.00;99.90
1992;DHT22;997;48.448;8.924;2023-04-24T13:12:10;13.30;99.90
1992;DHT22;997;48.448;8.924;2023-04-24T13:14:36;13.50;99.90
1992;DHT22;997;48.448;8.924;2023-04-24T13:17:02;13.30;99.90
1992;DHT22;997;48.448;8.924;2023-04-24T13:19:29;13.20;99.90
1992;DHT22;997;48.448;8.924;2023-04-24T13:21:56;13.00;99.90
1992;DHT22;997;48.448;8.924;2023-04-24T13:24:26;13.00;99.90
1992;DHT22;997;48.448;8.924;2023-04-24T13:26:54;13.00;99.90
1992;DHT22;997;48.448;8.924;2023-04-24T13:29:22;12.60;99.90
1992;DHT22;997;48.448;8.924;2023-04-24T13:31:50;12.60;99.90
1992;DHT22;997;48.448;8.924;2023-04-24T13:34:16;12.40;99.90
1992;DHT22;997;48.448;8.924;2023-04-24T13:36:42;12.30;99.90
1992;DHT22;997;48.448;8.924;2023-04-24T13:39:08;12.10;99.90
1992;DHT22;997;48.448;8.924;2023-04-24T13:41:34;12.20;99.90
1992;DHT22;997;48.448;8.924;2023-04-24T13:44:01;12.20;99.90
1992;DHT22;997;48.448;8.924;2023-04-24T13:46:26;12.30;99.90
1992;DHT22;997;48.448;8.924;2023-04-24T13:48:52;12.20;99.90
1992;DHT22;997;48.448;8.924;2023-04-24T13:51:18;12.30;99.90
1992;DHT22;997;48.448;8.924;2023-04-24T13:53:43;12.40;99.90
1992;DHT22;997;48.448;8.924;2023-04-24T13:56:09;12.30;99.90
1992;DHT22;997;48.448;8.924;2023-04-24T13:58:35;12.30;99.90
1992;DHT22;997;48.448;8.924;2023-04-24T14:01:02;12.30;99.90
1992;DHT22;997;48.448;8.924;2023-04-24T14:03:28;12.20;99.90
1992;DHT22;997;48.448;8.924;2023-04-24T14:05:54;12.20;99.90
1992;DHT22;997;48.448;8.924;2023-04-24T14:08:20;12.10;99.90
1992;DHT22;997;48.448;8.924;2023-04-24T14:10:46;11.90;99.90
1992;DHT22;997;48.448;8.924;2023-04-24T14:13:12;11.80;99.90
1992;DHT22;997;48.448;8.924;2023-04-24T14:15:37;11.80;99.90
1992;DHT22;997;48.448;8.924;2023-04-24T14:18:03;11.80;99.90
1992;DHT22;997;48.448;8.924;2023-04-24T14:20:29;11.70;99.90
1992;DHT22;997;48.448;8.924;2023-04-24T14:22:55;11.70;99.90
1992;DHT22;997;48.448;8.924;2023-04-24T14:25:23;11.70;99.90
1992;DHT22;997;48.448;8.924;2023-04-24T14:27:49;11.80;99.90
1992;DHT22;997;48.448;8.924;2023-04-24T14:30:15;11.90;99.90
1992;DHT22;997;48.448;8.924;2023-04-24T14:32:41;11.80;99.90
1992;DHT22;997;48.448;8.924;2023-04-24T14:35:07;11.80;99.90
1992;DHT22;997;48.448;8.924;2023-04-24T14:37:33;11.80;99.90
1992;DHT22;997;48.448;8.924;2023-04-24T14:39:59;11.70;99.90
1992;DHT22;997;48.448;8.924;2023-04-24T14:42:25;11.70;99.90
1992;DHT22;997;48.448;8.924;2023-04-24T14:44:51;11.50;99.90
1992;DHT22;997;48.448;8.924;2023-04-24T14:47:16;11.50;99.90
1992;DHT22;997;48.448;8.924;2023-04-24T14:49:47;11.60;99.90
1992;DHT22;997;48.448;8.924;2023-04-24T14:52:13;11.70;99.90
1992;DHT22;997;48.448;8.924;2023-04-24T14:54:38;11.70;99.90
1992;DHT22;997;48.448;8.924;2023-04-24T14:57:04;11.70;99.90
1992;DHT22;997;48.448;8.924;2023-04-24T14:59:31;11.80;99.90
1992;DHT22;997;48.448;8.924;2023-04-24T15:01:57;11.90;99.90
1992;DHT22;997;48.448;8.924;2023-04-24T15:04:27;12.00;99.90
1992;DHT22;997;48.448;8.924;2023-04-24T15:06:53;12.20;99.90
1992;DHT22;997;48.448;8.924;2023-04-24T15:09:23;12.10;99.90
1992;DHT22;997;48.448;8.924;2023-04-24T15:11:50;12.20;99.90
1992;DHT22;997;48.448;8.924;2023-04-24T15:14:16;12.20;99.90
1992;DHT22;997;48.448;8.924;2023-04-24T15:16:42;12.20;99.90
1992;DHT22;997;48.448;8.924;2023-04-24T15:19:08;12.20;99.90
1992;DHT22;997;48.448;8.924;2023-04-24T15:21:35;12.20;99.90
1992;DHT22;997;48.448;8.924;2023-04-24T15:24:01;12.30;99.90
1992;DHT22;997;48.448;8.924;2023-04-24T15:26:27;12.30;99.90
1992;DHT22;997;48.448;8.924;2023-04-24T15:28:54;12.40;99.90
1992;DHT22;997;48.448;8.924;2023-04-24T15:31:20;12.40;99.90
1992;DHT22;997;48.448;8.924;2023-04-24T15:33:47;12.40;99.90
1992;DHT22;997;48.448;8.924;2023-04-24T15:36:15;12.40;99.90
1992;DHT22;997;48.448;8.924;2023-04-24T15:38:42;12.50;99.90
1992;DHT22;997;48.448;8.924;2023-04-24T15:41:08;12.80;99.90
1992;DHT22;997;48.448;8.924;2023-04-24T15:43:34;13.10;99.90
1992;DHT22;997;48.448;8.924;2023-04-24T15:46:01;14.20;99.90
1992;DHT22;997;48.448;8.924;2023-04-24T15:48:30;15.60;99.90
1992;DHT22;997;48.448;8.924;2023-04-24T15:50:56;16.60;99.90
1992;DHT22;997;48.448;8.924;2023-04-24T15:53:21;17.10;99.90
1992;DHT22;997;48.448;8.924;2023-04-24T15:55:48;17.10;99.90
1992;DHT22;997;48.448;8.924;2023-04-24T15:58:14;17.40;99.90
1992;DHT22;997;48.448;8.924;2023-04-24T16:00:41;17.80;99.90
1992;DHT22;997;48.448;8.924;2023-04-24T16:03:07;18.00;99.90
1992;DHT22;997;48.448;8.924;2023-04-24T16:05:33;17.90;98.70
1992;DHT22;997;48.448;8.924;2023-04-24T16:07:59;16.80;97.90
1992;DHT22;997;48.448;8.924;2023-04-24T16:10:25;15.90;98.90
1992;DHT22;997;48.448;8.924;2023-04-24T16:12:51;15.50;99.90
1992;DHT22;997;48.448;8.924;2023-04-24T16:15:18;15.50;99.90
1992;DHT22;997;48.448;8.924;2023-04-24T16:17:43;15.70;99.90
1992;DHT22;997;48.448;8.924;2023-04-24T16:20:10;15.90;99.90
1992;DHT22;997;48.448;8.924;2023-04-24T16:22:38;15.50;99.90
1992;DHT22;997;48.448;8.924;2023-04-24T16:25:04;15.50;99.90
1992;DHT22;997;48.448;8.924;2023-04-24T16:27:30;15.60;99.90
1992;DHT22;997;48.448;8.924;2023-04-24T16:29:56;15.40;99.90
1992;DHT22;997;48.448;8.924;2023-04-24T16:32:21;15.00;99.90
1992;DHT22;997;48.448;8.924;2023-04-24T16:34:47;14.70;99.90
1992;DHT22;997;48.448;8.924;2023-04-24T16:37:13;14.60;99.90
1992;DHT22;997;48.448;8.924;2023-04-24T16:39:39;14.60;99.90
1992;DHT22;997;48.448;8.924;2023-04-24T16:42:12;14.40;99.90
1992;DHT22;997;48.448;8.924;2023-04-24T16:44:38;14.10;99.90
1992;DHT22;997;48.448;8.924;2023-04-24T17:03:29;14.10;99.90
1992;DHT22;997;48.448;8.924;2023-04-24T17:05:55;13.80;99.90
1992;DHT22;997;48.448;8.924;2023-04-24T17:08:21;13.60;99.90
1992;DHT22;997;48.448;8.924;2023-04-24T17:10:48;13.50;99.90
1992;DHT22;997;48.448;8.924;2023-04-24T17:13:14;13.50;99.90
1992;DHT22;997;48.448;8.924;2023-04-24T17:15:41;13.40;99.90
1992;DHT22;997;48.448;8.924;2023-04-24T17:18:07;13.40;99.90
1992;DHT22;997;48.448;8.924;2023-04-24T17:20:32;13.10;99.90
1992;DHT22;997;48.448;8.924;2023-04-24T17:22:58;12.90;99.90
1992;DHT22;997;48.448;8.924;2023-04-24T17:25:24;12.80;99.90
1992;DHT22;997;48.448;8.924;2023-04-24T17:27:50;12.80;99.90
1992;DHT22;997;48.448;8.924;2023-04-24T17:30:15;12.60;99.90
1992;DHT22;997;48.448;8.924;2023-04-24T17:32:42;12.60;99.90
1992;DHT22;997;48.448;8.924;2023-04-24T17:35:08;12.70;99.90
1992;DHT22;997;48.448;8.924;2023-04-24T17:37:34;12.60;99.90
1992;DHT22;997;48.448;8.924;2023-04-24T17:40:00;12.50;99.90
1992;DHT22;997;48.448;8.924;2023-04-24T17:42:26;12.60;99.90
1992;DHT22;997;48.448;8.924;2023-04-24T17:44:51;12.60;99.90
1992;DHT22;997;48.448;8.924;2023-04-24T17:47:17;12.60;99.90
1992;DHT22;997;48.448;8.924;2023-04-24T17:49:44;12.40;99.90
1992;DHT22;997;48.448;8.924;2023-04-24T17:52:10;12.20;99.90
1992;DHT22;997;48.448;8.924;2023-04-24T17:54:36;12.20;99.90
1992;DHT22;997;48.448;8.924;2023-04-24T17:57:02;12.00;99.90
1992;DHT22;997;48.448;8.924;2023-04-24T17:59:27;11.80;99.90
1992;DHT22;997;48.448;8.924;2023-04-24T18:01:53;11.80;99.90
1992;DHT22;997;48.448;8.924;2023-04-24T18:04:19;11.70;99.90
1992;DHT22;997;48.448;8.924;2023-04-24T18:06:45;11.70;99.90
1992;DHT22;997;48.448;8.924;2023-04-24T18:09:11;11.60;99.90
1992;DHT22;997;48.448;8.924;2023-04-24T18:11:37;11.70;99.90
1992;DHT22;997;48.448;8.924;2023-04-24T18:14:02;11.40;99.90
1992;DHT22;997;48.448;8.924;2023-04-24T18:16:28;11.20;99.90
1992;DHT22;997;48.448;8.924;2023-04-24T18:18:54;11.00;99.90
1992;DHT22;997;48.448;8.924;2023-04-24T18:21:19;10.90;99.90
1992;DHT22;997;48.448;8.924;2023-04-24T18:23:45;10.70;99.90
1992;DHT22;997;48.448;8.924;2023-04-24T18:26:11;10.60;99.90
1992;DHT22;997;48.448;8.924;2023-04-24T18:28:42;10.30;99.90
1992;DHT22;997;48.448;8.924;2023-04-24T18:31:08;10.10;99.90
1992;DHT22;997;48.448;8.924;2023-04-24T18:33:34;9.90;99.90
1992;DHT22;997;48.448;8.924;2023-04-24T18:36:00;9.80;99.90
1992;DHT22;997;48.448;8.924;2023-04-24T18:38:28;9.80;99.90
1992;DHT22;997;48.448;8.924;2023-04-24T18:40:53;9.80;99.90
1992;DHT22;997;48.448;8.924;2023-04-24T18:43:19;9.90;99.90
1992;DHT22;997;48.448;8.924;2023-04-24T18:45:45;10.00;99.90
1992;DHT22;997;48.448;8.924;2023-04-24T18:48:11;9.80;99.90
1992;DHT22;997;48.448;8.924;2023-04-24T18:50:37;9.80;99.90
1992;DHT22;997;48.448;8.924;2023-04-24T18:53:08;9.70;99.90
1992;DHT22;997;48.448;8.924;2023-04-24T18:55:34;9.80;99.90
1992;DHT22;997;48.448;8.924;2023-04-24T18:58:01;10.10;99.90
1992;DHT22;997;48.448;8.924;2023-04-24T19:00:27;10.20;99.90
1992;DHT22;997;48.448;8.924;2023-04-24T19:02:53;10.30;99.90
1992;DHT22;997;48.448;8.924;2023-04-24T19:05:19;10.30;99.90
1992;DHT22;997;48.448;8.924;2023-04-24T19:07:44;10.50;99.90
1992;DHT22;997;48.448;8.924;2023-04-24T19:10:10;10.60;99.90
1992;DHT22;997;48.448;8.924;2023-04-24T19:12:36;10.70;99.90
1992;DHT22;997;48.448;8.924;2023-04-24T19:15:02;10.80;99.90
1992;DHT22;997;48.448;8.924;2023-04-24T19:17:27;10.80;99.90
1992;DHT22;997;48.448;8.924;2023-04-24T19:19:54;10.80;99.90
1992;DHT22;997;48.448;8.924;2023-04-24T19:22:20;10.90;99.90
1992;DHT22;997;48.448;8.924;2023-04-24T19:24:45;10.80;99.90
1992;DHT22;997;48.448;8.924;2023-04-24T19:27:12;10.70;99.90
1992;DHT22;997;48.448;8.924;2023-04-24T19:29:37;10.70;99.90
1992;DHT22;997;48.448;8.924;2023-04-24T19:32:05;10.60;99.90
1992;DHT22;997;48.448;8.924;2023-04-24T19:34:31;10.60;99.90
1992;DHT22;997;48.448;8.924;2023-04-24T19:36:58;10.60;99.90
1992;DHT22;997;48.448;8.924;2023-04-24T19:39:24;10.60;99.90
1992;DHT22;997;48.448;8.924;2023-04-24T19:41:50;10.60;99.90
1992;DHT22;997;48.448;8.924;2023-04-24T19:44:15;10.60;99.90
1992;DHT22;997;48.448;8.924;2023-04-24T19:46:42;10.50;99.90
1992;DHT22;997;48.448;8.924;2023-04-24T19:49:07;10.50;99.90
1992;DHT22;997;48.448;8.924;2023-04-24T19:51:33;10.40;99.90
1992;DHT22;997;48.448;8.924;2023-04-24T19:54:00;10.30;99.90
1992;DHT22;997;48.448;8.924;2023-04-24T19:56:26;10.20;99.90
1992;DHT22;997;48.448;8.924;2023-04-24T19:58:51;10.30;99.90
1992;DHT22;997;48.448;8.924;2023-04-24T20:01:17;10.30;99.90
1992;DHT22;997;48.448;8.924;2023-04-24T20:03:43;10.20;99.90
1992;DHT22;997;48.448;8.924;2023-04-24T20:06:08;10.10;99.90
1992;DHT22;997;48.448;8.924;2023-04-24T20:08:34;10.10;99.90
1992;DHT22;997;48.448;8.924;2023-04-24T20:11:04;10.20;99.90
1992;DHT22;997;48.448;8.924;2023-04-24T20:13:29;10.20;99.90
1992;DHT22;997;48.448;8.924;2023-04-24T20:15:57;10.10;99.90
1992;DHT22;997;48.448;8.924;2023-04-24T20:18:23;10.10;99.90
1992;DHT22;997;48.448;8.924;2023-04-24T20:20:49;10.20;99.90
1992;DHT22;997;48.448;8.924;2023-04-24T20:23:20;10.10;99.90
1992;DHT22;997;48.448;8.924;2023-04-24T20:25:46;10.10;99.90
1992;DHT22;997;48.448;8.924;2023-04-24T20:28:12;10.20;99.90
1992;DHT22;997;48.448;8.924;2023-04-24T20:30:39;10.20;99.90
1992;DHT22;997;48.448;8.924;2023-04-24T20:33:05;10.30;99.90
1992;DHT22;997;48.448;8.924;2023-04-24T20:35:31;10.40;99.90
1992;DHT22;997;48.448;8.924;2023-04-24T20:37:56;10.40;99.90
1992;DHT22;997;48.448;8.924;2023-04-24T20:40:23;10.30;99.90
1992;DHT22;997;48.448;8.924;2023-04-24T20:42:49;10.30;99.90
1992;DHT22;997;48.448;8.924;2023-04-24T20:45:15;10.30;99.90
1992;DHT22;997;48.448;8.924;2023-04-24T20:47:42;10.40;99.90
1992;DHT22;997;48.448;8.924;2023-04-24T20:50:08;10.40;99.90
1992;DHT22;997;48.448;8.924;2023-04-24T20:52:34;10.50;99.90
1992;DHT22;997;48.448;8.924;2023-04-24T20:55:00;10.50;99.90
1992;DHT22;997;48.448;8.924;2023-04-24T20:57:26;10.50;99.90
1992;DHT22;997;48.448;8.924;2023-04-24T20:59:52;10.50;99.90
1992;DHT22;997;48.448;8.924;2023-04-24T21:02:18;10.50;99.90
1992;DHT22;997;48.448;8.924;2023-04-24T21:04:49;10.60;99.90
1992;DHT22;997;48.448;8.924;2023-04-24T21:07:15;10.50;99.90
1992;DHT22;997;48.448;8.924;2023-04-24T21:09:42;10.50;99.90
1992;DHT22;997;48.448;8.924;2023-04-24T21:12:15;10.50;99.90
1992;DHT22;997;48.448;8.924;2023-04-24T21:14:43;10.40;99.90
1992;DHT22;997;48.448;8.924;2023-04-24T21:17:43;10.40;99.90
1992;DHT22;997;48.448;8.924;2023-04-24T21:20:37;10.40;99.90
1992;DHT22;997;48.448;8.924;2023-04-24T21:23:42;10.40;99.90
1992;DHT22;997;48.448;8.924;2023-04-24T21:26:33;10.30;99.90
1992;DHT22;997;48.448;8.924;2023-04-24T21:28:59;10.20;99.90
